Time;durP1;ratioP1;P1;durP2;ratioP2;P2;SDS_P1;SDS_P2;PMS_P1;PMS_P2;Temp;Humidity;BMP_temperature;BMP_pressure;BME280_temperature;BME280_humidity;BME280_pressure;Samples;Min_cycle;Max_cycle;Signal;HPM_P1;HPM_P2
2021/12/25 00:01:15;;;;;;;3.43;2.50;;;18.70;54.00;;;;;;5033882;28;20651;-26
2021/12/25 00:03:41;;;;;;;3.23;2.33;;;18.70;53.70;;;;;;5034704;28;20585;-21
2021/12/25 00:06:07;;;;;;;2.43;2.03;;;18.70;53.60;;;;;;5033953;28;20204;-24
2021/12/25 00:08:33;;;;;;;4.70;2.20;;;18.70;53.60;;;;;;5033685;28;20202;-23
2021/12/25 00:11:00;;;;;;;4.30;2.47;;;18.70;53.40;;;;;;5034135;28;20225;-21
2021/12/25 00:13:25;;;;;;;5.77;2.30;;;18.70;53.40;;;;;;5033689;28;20616;-24
2021/12/25 00:15:52;;;;;;;5.00;2.40;;;18.80;53.30;;;;;;5033109;28;20212;-23
2021/12/25 00:18:19;;;;;;;2.93;2.07;;;18.80;53.00;;;;;;5035016;28;20199;-25
2021/12/25 00:20:45;;;;;;;2.83;2.20;;;18.90;52.90;;;;;;5034017;28;20200;-23
2021/12/25 00:23:11;;;;;;;3.17;2.30;;;18.90;52.80;;;;;;5033576;28;20200;-22
2021/12/25 00:25:45;;;;;;;3.00;2.00;;;18.90;52.70;;;;;;5032940;28;20199;-22
2021/12/25 00:36:15;;;;;;;2.37;1.97;;;18.80;52.30;;;;;;5034633;28;20198;-25
2021/12/25 00:38:42;;;;;;;3.20;2.10;;;18.90;52.00;;;;;;5031658;28;20492;-23
2021/12/25 00:41:09;;;;;;;2.87;2.07;;;18.80;51.80;;;;;;5033908;28;20205;-22
2021/12/25 00:43:35;;;;;;;2.73;2.10;;;18.70;51.90;;;;;;5032324;28;20214;-23
2021/12/25 00:46:01;;;;;;;3.30;2.00;;;18.80;51.90;;;;;;5032380;28;20173;-25
2021/12/25 00:48:27;;;;;;;2.40;1.90;;;18.80;51.70;;;;;;5033239;28;20319;-24
2021/12/25 00:50:53;;;;;;;2.13;1.80;;;18.80;51.50;;;;;;5034168;28;20385;-24
2021/12/25 00:53:19;;;;;;;2.43;1.80;;;18.80;51.40;;;;;;5035219;28;21149;-23
2021/12/25 00:55:45;;;;;;;3.90;2.30;;;18.70;51.50;;;;;;5033619;28;20752;-25
2021/12/25 00:58:10;;;;;;;2.03;1.80;;;18.70;51.30;;;;;;5033712;28;20622;-24
2021/12/25 01:00:36;;;;;;;2.37;1.90;;;18.80;51.20;;;;;;5032782;28;20215;-23
2021/12/25 01:03:02;;;;;;;2.20;1.70;;;18.70;51.20;;;;;;5033628;28;20196;-23
2021/12/25 01:05:28;;;;;;;1.90;1.70;;;18.70;51.10;;;;;;5034086;28;20204;-22
2021/12/25 01:07:54;;;;;;;2.27;1.57;;;18.70;51.00;;;;;;5033236;28;20300;-24
2021/12/25 01:10:21;;;;;;;2.20;1.80;;;18.70;51.00;;;;;;5033320;28;20218;-22
2021/12/25 01:15:28;;;;;;;3.10;2.20;;;18.60;50.90;;;;;;5034327;28;20205;-23
2021/12/25 01:25:51;;;;;;;1.90;1.63;;;18.80;50.40;;;;;;5033500;28;20454;-23
2021/12/25 01:38:58;;;;;;;2.00;1.60;;;18.80;49.80;;;;;;5033290;28;20204;-23
2021/12/25 01:49:25;;;;;;;1.73;1.57;;;18.70;49.70;;;;;;5035428;28;20202;-23
2021/12/25 01:51:51;;;;;;;1.67;1.40;;;18.70;49.90;;;;;;5035508;28;20227;-24
2021/12/25 01:54:17;;;;;;;1.60;1.30;;;18.60;49.50;;;;;;5035494;28;20211;-23
2021/12/25 01:56:43;;;;;;;1.97;1.57;;;18.60;49.70;;;;;;5036228;28;20198;-24
2021/12/25 01:59:08;;;;;;;1.70;1.40;;;18.60;49.60;;;;;;5035723;28;20195;-23
2021/12/25 02:01:34;;;;;;;2.33;1.70;;;18.60;49.50;;;;;;5036114;28;20396;-24
2021/12/25 02:04:00;;;;;;;2.70;1.47;;;18.50;49.50;;;;;;5034744;28;20202;-24
2021/12/25 02:06:26;;;;;;;1.47;1.37;;;18.50;49.60;;;;;;5036258;28;20191;-23
2021/12/25 02:08:52;;;;;;;1.70;1.30;;;18.50;49.50;;;;;;5035345;28;20202;-22
2021/12/25 02:11:18;;;;;;;1.47;1.33;;;18.50;49.50;;;;;;5036393;28;20305;-22
2021/12/25 02:13:45;;;;;;;1.60;1.50;;;18.50;49.30;;;;;;5035856;28;20183;-22
2021/12/25 02:16:15;;;;;;;1.50;1.40;;;18.60;49.20;;;;;;5036496;28;20606;-22
2021/12/25 02:21:45;;;;;;;1.40;1.30;;;18.50;49.00;;;;;;5014472;28;20197;-24
2021/12/25 02:24:12;;;;;;;2.90;1.50;;;18.50;48.90;;;;;;5014311;28;20192;-27
2021/12/25 02:26:41;;;;;;;2.00;1.53;;;18.60;48.60;;;;;;5024242;28;20207;-21
2021/12/25 02:29:07;;;;;;;1.40;1.30;;;18.60;48.50;;;;;;5035925;28;20215;-22
2021/12/25 02:31:33;;;;;;;1.63;1.40;;;18.50;48.40;;;;;;5036208;28;20220;-22
2021/12/25 02:33:59;;;;;;;1.50;1.40;;;18.40;48.30;;;;;;5035282;28;20240;-23
2021/12/25 02:36:24;;;;;;;1.60;1.40;;;18.40;48.40;;;;;;5034620;28;20245;-24
2021/12/25 02:38:50;;;;;;;1.40;1.30;;;18.20;48.60;;;;;;5035130;28;20194;-23
2021/12/25 02:41:17;;;;;;;1.47;1.37;;;18.30;48.60;;;;;;5035726;28;20197;-24
2021/12/25 02:43:45;;;;;;;1.70;1.30;;;18.10;48.60;;;;;;5034928;28;20238;-23
2021/12/25 02:46:12;;;;;;;1.53;1.40;;;18.10;48.60;;;;;;5035533;28;20186;-22
2021/12/25 02:48:41;;;;;;;1.50;1.30;;;18.10;48.70;;;;;;5035405;28;20697;-23
2021/12/25 02:51:07;;;;;;;1.50;1.40;;;18.10;48.80;;;;;;5035103;28;20402;-25
2021/12/25 02:53:34;;;;;;;1.47;1.30;;;18.00;48.90;;;;;;5034634;28;20189;-24
2021/12/25 02:56:00;;;;;;;1.70;1.30;;;18.00;48.80;;;;;;5035571;28;20260;-24
2021/12/25 02:58:25;;;;;;;2.03;1.23;;;17.90;48.70;;;;;;5035700;28;20289;-23
2021/12/25 03:00:56;;;;;;;1.80;1.50;;;17.80;49.00;;;;;;5035431;28;20268;-20
2021/12/25 03:03:22;;;;;;;2.10;1.20;;;17.70;48.80;;;;;;5034451;28;20186;-20
2021/12/25 03:05:48;;;;;;;1.40;1.30;;;17.70;49.00;;;;;;5034875;28;20196;-23
2021/12/25 03:08:15;;;;;;;1.30;1.20;;;17.70;49.00;;;;;;5033535;28;20201;-23
2021/12/25 03:10:41;;;;;;;1.40;1.30;;;17.70;48.90;;;;;;5034373;28;20232;-23
2021/12/25 03:15:47;;;;;;;1.43;1.33;;;17.60;49.00;;;;;;5035994;28;20220;-24
2021/12/25 03:18:16;;;;;;;1.40;1.30;;;17.60;48.90;;;;;;5035112;28;20185;-21
2021/12/25 03:20:46;;;;;;;1.40;1.30;;;17.60;48.80;;;;;;5035147;28;20466;-24
2021/12/25 03:23:19;;;;;;;1.30;1.20;;;17.50;48.80;;;;;;5033471;28;20193;-22
2021/12/25 03:25:46;;;;;;;1.43;1.33;;;17.50;48.80;;;;;;5035335;28;20172;-25
2021/12/25 03:28:13;;;;;;;1.40;1.30;;;17.50;48.70;;;;;;5034721;28;20201;-22
2021/12/25 03:30:39;;;;;;;1.30;1.20;;;17.50;49.10;;;;;;5035811;28;20636;-23
2021/12/25 03:33:13;;;;;;;1.40;1.30;;;17.40;48.70;;;;;;5035317;28;20185;-25
2021/12/25 03:35:39;;;;;;;1.43;1.30;;;17.30;48.70;;;;;;5035848;28;20251;-24
2021/12/25 03:38:07;;;;;;;1.43;1.33;;;17.30;48.70;;;;;;5035484;28;20193;-23
2021/12/25 03:40:33;;;;;;;2.13;1.40;;;17.30;48.60;;;;;;5034502;28;20192;-23
2021/12/25 03:42:59;;;;;;;1.60;1.50;;;17.40;48.40;;;;;;5034314;28;20480;-22
2021/12/25 03:45:28;;;;;;;1.70;1.40;;;17.60;48.10;;;;;;5035013;28;20216;-23
2021/12/25 03:48:04;;;;;;;1.53;1.43;;;17.80;47.80;;;;;;5034494;28;20215;-24
2021/12/25 03:58:36;;;;;;;1.40;1.30;;;17.60;47.50;;;;;;5035189;28;20201;-22
2021/12/25 04:01:24;;;;;;;1.73;1.63;;;17.70;47.30;;;;;;5034673;28;20208;-21
2021/12/25 04:04:05;;;;;;;1.43;1.30;;;17.60;47.10;;;;;;5034164;28;20202;-21
2021/12/25 04:06:32;;;;;;;1.60;1.50;;;17.50;47.20;;;;;;5035120;28;20212;-24
2021/12/25 04:09:00;;;;;;;1.87;1.67;;;17.40;47.30;;;;;;5034639;28;20227;-22
2021/12/25 04:11:31;;;;;;;1.50;1.40;;;17.30;47.30;;;;;;5034654;28;20229;-23
2021/12/25 04:13:57;;;;;;;1.83;1.73;;;17.30;47.30;;;;;;5034678;28;20194;-23
2021/12/25 04:16:23;;;;;;;1.30;1.20;;;17.30;47.30;;;;;;5034368;28;20200;-22
2021/12/25 04:18:49;;;;;;;1.40;1.30;;;17.30;47.30;;;;;;5034229;28;20275;-25
2021/12/25 04:21:15;;;;;;;1.70;1.60;;;17.20;47.40;;;;;;5034070;28;20558;-22
2021/12/25 04:23:43;;;;;;;1.80;1.50;;;17.10;47.50;;;;;;5034935;28;20196;-24
2021/12/25 04:26:09;;;;;;;1.67;1.57;;;17.00;47.50;;;;;;5034358;28;20193;-21
2021/12/25 04:28:44;;;;;;;1.40;1.30;;;17.00;47.60;;;;;;5035103;28;20189;-24
2021/12/25 04:48:09;;;;;;;2.07;1.63;;;16.90;47.40;;;;;;5034672;28;20674;-23
2021/12/25 05:04:31;;;;;;;1.40;1.30;;;17.20;46.40;;;;;;5034155;28;20185;-23
2021/12/25 05:06:57;;;;;;;1.40;1.30;;;17.10;46.40;;;;;;5033886;28;20264;-20
2021/12/25 05:09:22;;;;;;;1.40;1.20;;;17.00;46.50;;;;;;5032154;28;20176;-23
2021/12/25 05:11:48;;;;;;;1.50;1.40;;;16.90;46.60;;;;;;5034022;28;20212;-24
2021/12/25 05:14:14;;;;;;;1.37;1.27;;;16.80;46.70;;;;;;5032767;28;20200;-24
2021/12/25 05:16:41;;;;;;;1.40;1.30;;;16.70;46.80;;;;;;5033791;28;20205;-25
2021/12/25 05:19:07;;;;;;;1.57;1.27;;;16.70;46.90;;;;;;5036505;28;20355;-22
2021/12/25 05:21:33;;;;;;;1.23;1.13;;;16.70;46.90;;;;;;5037491;28;20300;-22
2021/12/25 05:23:59;;;;;;;1.50;1.40;;;16.60;46.80;;;;;;5036502;28;20208;-23
2021/12/25 05:26:25;;;;;;;1.43;1.33;;;16.60;46.80;;;;;;5036351;28;20212;-24
2021/12/25 05:28:58;;;;;;;1.30;1.20;;;16.60;46.70;;;;;;5037601;28;20205;-23
2021/12/25 05:31:26;;;;;;;1.60;1.33;;;16.60;46.70;;;;;;5037690;28;20606;-22
2021/12/25 05:33:53;;;;;;;1.30;1.20;;;16.50;46.70;;;;;;5037559;28;20197;-21
2021/12/25 05:36:19;;;;;;;1.30;1.20;;;16.90;46.50;;;;;;5036844;28;20181;-24
2021/12/25 05:38:45;;;;;;;1.20;1.10;;;19.90;44.10;;;;;;5037203;28;20194;-23
2021/12/25 05:41:11;;;;;;;1.20;1.10;;;20.60;41.90;;;;;;5036202;28;20443;-24
2021/12/25 05:43:37;;;;;;;1.30;1.20;;;20.70;41.30;;;;;;5037804;28;20540;-24
2021/12/25 05:46:03;;;;;;;1.30;1.20;;;20.70;41.10;;;;;;5036132;28;20227;-20
2021/12/25 05:48:35;;;;;;;0.90;0.90;;;21.00;40.90;;;;;;5037622;28;20250;-21
2021/12/25 05:51:04;;;;;;;1.90;1.07;;;21.40;40.60;;;;;;5036949;28;20218;-23
2021/12/25 05:53:30;;;;;;;1.33;1.20;;;21.70;40.10;;;;;;5037506;28;20451;-23
2021/12/25 05:55:55;;;;;;;1.03;1.00;;;22.00;39.70;;;;;;5037149;28;20257;-22
2021/12/25 05:58:21;;;;;;;1.47;1.20;;;22.30;39.40;;;;;;5035779;28;20199;-22
2021/12/25 06:00:47;;;;;;;1.37;1.27;;;22.80;39.00;;;;;;5036404;28;20277;-21
2021/12/25 06:03:12;;;;;;;1.30;1.20;;;23.10;38.60;;;;;;5036158;28;20204;-23
2021/12/25 06:05:38;;;;;;;1.87;1.10;;;23.40;38.30;;;;;;5035551;28;20529;-21
2021/12/25 06:08:04;;;;;;;1.00;1.00;;;23.60;37.90;;;;;;5036885;28;20544;-25
2021/12/25 06:10:30;;;;;;;1.13;1.00;;;23.80;37.80;;;;;;5036255;28;20217;-21
2021/12/25 06:12:58;;;;;;;1.50;1.03;;;24.20;37.50;;;;;;5036874;28;20208;-21
2021/12/25 06:15:26;;;;;;;2.37;1.10;;;24.50;37.20;;;;;;5037012;28;20206;-25
2021/12/25 06:17:51;;;;;;;0.87;0.87;;;24.90;36.90;;;;;;5037083;28;20600;-22
2021/12/25 06:20:17;;;;;;;1.50;1.00;;;25.10;36.60;;;;;;5035508;28;20203;-25
2021/12/25 06:22:43;;;;;;;1.00;0.90;;;25.30;36.30;;;;;;5035567;28;20207;-23
2021/12/25 06:25:09;;;;;;;1.20;1.10;;;25.60;36.30;;;;;;5037342;28;20212;-24
2021/12/25 06:27:35;;;;;;;1.83;1.00;;;25.50;36.30;;;;;;5035267;28;20207;-21
2021/12/25 06:30:02;;;;;;;2.23;0.80;;;25.30;36.20;;;;;;5035414;28;20254;-23
2021/12/25 06:32:28;;;;;;;2.83;1.00;;;25.40;36.20;;;;;;5036314;28;20514;-24
2021/12/25 06:34:53;;;;;;;3.03;0.97;;;25.70;36.10;;;;;;5035888;28;20630;-23
2021/12/25 06:37:19;;;;;;;1.67;1.00;;;25.80;35.80;;;;;;5036244;28;20200;-24
2021/12/25 06:39:47;;;;;;;0.80;0.80;;;25.70;35.80;;;;;;5036226;28;20199;-24
2021/12/25 06:42:13;;;;;;;1.20;0.90;;;25.70;35.90;;;;;;5034899;28;20208;-24
2021/12/25 06:44:38;;;;;;;0.90;0.90;;;25.60;35.90;;;;;;5036125;28;20196;-24
2021/12/25 06:47:05;;;;;;;0.83;0.83;;;25.80;36.00;;;;;;5035653;28;20612;-23
2021/12/25 06:49:31;;;;;;;1.47;1.00;;;26.30;35.70;;;;;;5036131;28;20192;-23
2021/12/25 06:51:57;;;;;;;0.80;0.80;;;26.40;35.50;;;;;;5036316;28;20367;-25
2021/12/25 06:54:22;;;;;;;1.20;1.10;;;26.10;35.40;;;;;;5035934;28;20307;-22
2021/12/25 06:56:49;;;;;;;1.27;1.00;;;26.20;35.60;;;;;;5035113;28;20209;-25
2021/12/25 06:59:16;;;;;;;0.93;0.80;;;26.20;35.70;;;;;;5036717;28;20204;-25
2021/12/25 07:01:42;;;;;;;0.87;0.87;;;26.30;35.50;;;;;;5034418;28;20204;-20
2021/12/25 07:04:08;;;;;;;1.10;1.00;;;26.40;35.40;;;;;;5035392;28;20457;-25
2021/12/25 07:06:34;;;;;;;1.00;0.90;;;26.30;35.30;;;;;;5035142;28;20508;-22
2021/12/25 07:09:00;;;;;;;0.90;0.90;;;26.00;35.50;;;;;;5035963;28;20273;-24
2021/12/25 07:11:26;;;;;;;1.10;1.00;;;25.90;35.60;;;;;;5035232;28;20394;-25
2021/12/25 07:13:52;;;;;;;1.00;0.90;;;25.70;35.70;;;;;;5035566;28;20199;-25
2021/12/25 07:16:18;;;;;;;0.80;0.80;;;25.40;35.70;;;;;;5035283;28;20199;-22
2021/12/25 07:18:45;;;;;;;1.27;1.00;;;25.10;36.00;;;;;;5035779;28;20262;-26
2021/12/25 07:21:11;;;;;;;1.00;0.90;;;24.80;36.20;;;;;;5034349;28;20266;-23
2021/12/25 07:23:37;;;;;;;1.00;0.90;;;24.50;36.40;;;;;;5035563;28;20204;-25
2021/12/25 07:26:03;;;;;;;0.80;0.77;;;24.10;36.70;;;;;;5035043;28;20428;-26
2021/12/25 07:28:29;;;;;;;1.10;1.00;;;23.80;36.90;;;;;;5035719;28;20581;-24
2021/12/25 07:30:58;;;;;;;0.83;0.80;;;23.70;37.10;;;;;;5036661;28;20294;-24
2021/12/25 07:33:23;;;;;;;0.70;0.70;;;23.50;37.30;;;;;;5035474;28;20179;-28
2021/12/25 07:35:49;;;;;;;1.20;0.80;;;23.40;37.40;;;;;;5035520;28;20199;-26
2021/12/25 07:38:17;;;;;;;1.50;0.90;;;23.40;37.40;;;;;;5035534;28;20191;-24
2021/12/25 07:40:43;;;;;;;1.43;0.97;;;23.70;37.20;;;;;;5034031;28;20270;-24
2021/12/25 07:43:08;;;;;;;1.20;0.87;;;24.30;36.80;;;;;;5035496;28;20587;-23
2021/12/25 07:45:34;;;;;;;0.90;0.90;;;24.80;36.40;;;;;;5034919;28;20200;-21
2021/12/25 07:48:02;;;;;;;1.00;0.90;;;25.20;35.90;;;;;;5033840;28;20196;-22
2021/12/25 07:50:30;;;;;;;1.33;1.00;;;25.60;35.80;;;;;;5035930;28;20231;-25
2021/12/25 07:52:56;;;;;;;1.17;1.00;;;25.80;35.30;;;;;;5035018;28;20476;-26
2021/12/25 07:55:23;;;;;;;0.90;0.90;;;25.90;35.20;;;;;;5035049;28;20568;-24
2021/12/25 07:57:49;;;;;;;1.30;1.20;;;25.80;35.20;;;;;;5034525;28;20289;-24
2021/12/25 08:00:16;;;;;;;1.17;1.00;;;26.00;35.10;;;;;;5033863;28;20212;-26
2021/12/25 08:02:45;;;;;;;1.50;1.03;;;26.20;35.00;;;;;;5035051;28;20166;-26
2021/12/25 08:05:12;;;;;;;0.87;0.87;;;26.50;34.90;;;;;;5034457;28;20216;-24
2021/12/25 08:07:37;;;;;;;0.87;0.83;;;26.30;34.80;;;;;;5035133;28;20573;-23
2021/12/25 08:10:13;;;;;;;1.10;0.90;;;26.10;34.90;;;;;;5034564;28;20225;-22
2021/12/25 08:12:42;;;;;;;1.10;1.00;;;26.20;34.90;;;;;;5033867;28;20200;-25
2021/12/25 08:15:09;;;;;;;0.90;0.90;;;26.20;34.80;;;;;;5028040;28;20193;-25
2021/12/25 08:17:35;;;;;;;1.30;0.90;;;26.10;34.80;;;;;;5034846;28;20557;-24
2021/12/25 08:20:00;;;;;;;0.90;0.90;;;26.00;35.30;;;;;;5033913;28;20581;-24
2021/12/25 08:22:26;;;;;;;1.27;1.00;;;26.10;34.90;;;;;;5034604;28;20201;-26
2021/12/25 08:24:52;;;;;;;0.90;0.90;;;25.90;35.00;;;;;;5034843;28;20193;-25
2021/12/25 08:27:18;;;;;;;1.10;1.00;;;25.80;35.00;;;;;;5034129;28;20199;-23
2021/12/25 08:29:44;;;;;;;1.10;1.00;;;25.70;35.00;;;;;;5050061;28;20509;-24
2021/12/25 08:32:10;;;;;;;2.03;0.93;;;25.60;35.10;;;;;;5033730;28;20626;-23
2021/12/25 08:34:37;;;;;;;1.50;1.10;;;25.40;35.20;;;;;;5032760;28;20657;-24
2021/12/25 08:37:05;;;;;;;1.13;1.00;;;25.20;35.40;;;;;;5033591;28;20232;-24
2021/12/25 08:39:30;;;;;;;0.80;0.80;;;25.00;35.70;;;;;;5034358;28;20267;-23
2021/12/25 08:42:01;;;;;;;1.20;1.10;;;25.10;35.80;;;;;;5034249;28;20196;-24
2021/12/25 08:45:20;;;;;;;1.30;0.90;;;25.00;36.00;;;;;;5034414;28;20336;-26
2021/12/25 08:47:16;;;;;;;1.10;1.00;;;24.90;36.10;;;;;;5028619;28;20243;-24
2021/12/25 08:49:42;;;;;;;1.20;1.10;;;24.80;36.40;;;;;;5033073;28;20192;-22
2021/12/25 08:52:11;;;;;;;1.20;1.00;;;24.80;36.40;;;;;;5035205;28;20586;-23
2021/12/25 08:54:38;;;;;;;1.47;0.97;;;24.90;36.30;;;;;;5037039;28;20208;-24
2021/12/25 08:57:05;;;;;;;1.60;1.10;;;24.90;36.40;;;;;;5035964;28;20294;-25
2021/12/25 08:59:31;;;;;;;2.50;0.90;;;24.90;36.40;;;;;;5036131;28;20195;-23
2021/12/25 09:01:57;;;;;;;1.10;1.00;;;25.00;36.30;;;;;;5036587;28;20203;-22
2021/12/25 09:04:23;;;;;;;0.80;0.80;;;25.00;36.30;;;;;;5036774;28;20196;-24
2021/12/25 09:06:48;;;;;;;1.30;1.00;;;25.30;36.60;;;;;;5037524;28;20354;-24
2021/12/25 09:09:14;;;;;;;1.43;1.10;;;25.60;36.00;;;;;;5037502;28;20206;-25
2021/12/25 09:11:41;;;;;;;1.40;1.00;;;25.60;35.80;;;;;;5037040;28;20213;-23
2021/12/25 09:14:06;;;;;;;0.93;0.90;;;25.80;35.80;;;;;;5036731;28;20512;-22
2021/12/25 09:16:33;;;;;;;1.80;0.80;;;25.80;35.70;;;;;;5036352;28;20684;-23
2021/12/25 09:18:59;;;;;;;1.00;0.90;;;25.80;35.60;;;;;;5035352;28;20200;-24
2021/12/25 09:21:25;;;;;;;1.00;0.90;;;25.80;35.60;;;;;;5036338;28;20195;-23
2021/12/25 09:23:50;;;;;;;2.17;1.10;;;25.60;35.70;;;;;;5035287;28;20479;-23
2021/12/25 09:26:17;;;;;;;1.53;1.00;;;25.60;35.70;;;;;;5036405;28;20350;-24
2021/12/25 09:28:44;;;;;;;1.00;0.90;;;25.70;35.60;;;;;;5035456;28;20255;-27
2021/12/25 09:31:10;;;;;;;1.20;0.87;;;25.90;35.50;;;;;;5035716;28;20255;-22
2021/12/25 09:33:36;;;;;;;1.50;1.00;;;25.50;35.60;;;;;;5035983;28;20228;-25
2021/12/25 09:36:02;;;;;;;1.20;0.80;;;25.20;35.80;;;;;;5032491;28;20201;-27
2021/12/25 09:38:29;;;;;;;1.47;0.90;;;25.10;35.90;;;;;;5034797;28;20212;-24
2021/12/25 09:40:57;;;;;;;2.27;1.00;;;25.10;36.00;;;;;;5033876;28;20299;-27
2021/12/25 09:43:23;;;;;;;1.97;0.90;;;25.20;35.90;;;;;;5036191;28;20216;-23
2021/12/25 09:45:49;;;;;;;0.93;0.87;;;25.40;35.90;;;;;;5036109;28;20203;-24
2021/12/25 09:48:15;;;;;;;1.50;0.97;;;25.00;36.00;;;;;;5034318;28;20199;-28
2021/12/25 09:50:41;;;;;;;1.83;1.00;;;25.30;36.00;;;;;;5034766;28;20547;-23
2021/12/25 09:53:08;;;;;;;1.20;0.83;;;25.10;36.10;;;;;;5035637;28;20287;-23
2021/12/25 09:55:35;;;;;;;1.20;1.00;;;25.00;36.20;;;;;;5034828;28;20193;-22
2021/12/25 09:58:01;;;;;;;1.83;1.10;;;24.80;36.30;;;;;;5035046;28;20278;-25
2021/12/25 10:00:27;;;;;;;3.63;1.00;;;25.00;36.10;;;;;;5026618;28;20197;-23
2021/12/25 10:02:56;;;;;;;1.53;1.00;;;25.00;36.00;;;;;;5016540;28;20236;-24
2021/12/25 10:05:26;;;;;;;1.13;1.03;;;25.10;35.90;;;;;;5022505;28;20196;-24
2021/12/25 10:08:11;;;;;;;2.00;1.10;;;25.10;35.80;;;;;;5035095;28;20207;-24
2021/12/25 10:10:40;;;;;;;1.83;0.90;;;25.10;35.60;;;;;;5028943;28;20220;-24
2021/12/25 10:13:20;;;;;;;0.97;0.90;;;25.20;35.50;;;;;;5037414;28;20235;-32
2021/12/25 10:15:46;;;;;;;2.43;1.00;;;25.10;35.20;;;;;;5033129;28;20200;-25
2021/12/25 10:18:12;;;;;;;2.47;1.00;;;24.60;35.30;;;;;;5017979;28;20192;-24
2021/12/25 10:20:37;;;;;;;1.97;1.03;;;24.30;35.50;;;;;;5017383;28;20192;-23
2021/12/25 10:23:14;;;;;;;1.47;0.90;;;23.80;35.80;;;;;;5033222;28;20203;-25
2021/12/25 10:25:59;;;;;;;1.10;0.90;;;23.30;36.20;;;;;;5026326;28;20564;-24
2021/12/25 10:28:30;;;;;;;1.70;1.00;;;23.00;36.70;;;;;;5017424;28;20199;-25
2021/12/25 10:31:02;;;;;;;1.00;0.90;;;22.40;37.10;;;;;;5031335;28;20656;-26
2021/12/25 10:33:51;;;;;;;2.30;1.00;;;22.00;37.40;;;;;;5018468;28;20176;-21
2021/12/25 10:36:35;;;;;;;2.40;0.90;;;21.70;37.70;;;;;;5037071;28;20296;-26
2021/12/25 10:39:05;;;;;;;1.50;0.93;;;21.50;38.00;;;;;;5038823;28;20194;-23
2021/12/25 10:41:35;;;;;;;1.60;0.77;;;21.20;38.20;;;;;;5037801;28;20195;-23
2021/12/25 10:44:14;;;;;;;1.53;1.03;;;20.90;38.40;;;;;;5034357;28;20231;-22
2021/12/25 10:47:00;;;;;;;1.13;1.00;;;20.80;38.50;;;;;;5033264;28;20420;-25
2021/12/25 10:49:50;;;;;;;1.27;1.00;;;20.60;38.60;;;;;;5034947;28;20185;-24
2021/12/25 10:52:30;;;;;;;1.77;1.00;;;20.40;38.60;;;;;;5023507;28;20616;-23
2021/12/25 10:55:05;;;;;;;1.03;0.90;;;20.30;38.80;;;;;;5033229;28;20193;-24
2021/12/25 10:57:38;;;;;;;3.33;1.03;;;22.00;38.10;;;;;;5034983;28;20272;-21
2021/12/25 11:00:10;;;;;;;1.50;1.07;;;22.60;37.00;;;;;;5033537;28;20194;-24
2021/12/25 11:02:45;;;;;;;2.30;0.90;;;22.70;36.80;;;;;;5034452;28;20197;-23
2021/12/25 11:05:24;;;;;;;1.63;1.10;;;22.60;36.70;;;;;;5032851;28;20196;-24
2021/12/25 11:08:05;;;;;;;2.53;0.80;;;23.20;36.70;;;;;;5032962;28;20635;-24
2021/12/25 11:10:40;;;;;;;2.23;1.00;;;23.60;36.30;;;;;;5033404;28;20215;-24
2021/12/25 11:13:15;;;;;;;3.70;1.30;;;23.90;35.90;;;;;;5033438;28;20200;-25
2021/12/25 11:15:41;;;;;;;2.87;1.13;;;24.40;35.50;;;;;;5033311;28;20281;-26
2021/12/25 11:18:08;;;;;;;1.53;1.00;;;24.70;35.60;;;;;;5058431;23;20216;-23
2021/12/25 11:20:41;;;;;;;1.03;0.93;;;24.80;35.00;;;;;;5074121;28;20198;-22
2021/12/25 11:23:12;;;;;;;1.60;1.10;;;25.10;34.60;;;;;;5072610;28;20199;-23
2021/12/25 11:25:40;;;;;;;1.90;1.10;;;25.40;34.30;;;;;;5074859;28;20233;-25
2021/12/25 11:28:10;;;;;;;1.67;0.90;;;25.70;34.00;;;;;;5074397;28;20217;-23
2021/12/25 11:30:39;;;;;;;2.33;1.00;;;26.00;33.80;;;;;;5072258;28;20617;-24
2021/12/25 11:33:05;;;;;;;1.43;1.00;;;26.60;33.40;;;;;;5073209;28;20302;-27
2021/12/25 11:35:34;;;;;;;1.20;1.00;;;26.70;33.10;;;;;;5072118;28;20160;-25
2021/12/25 11:38:03;;;;;;;1.70;1.10;;;26.30;33.10;;;;;;5073894;28;20187;-23
2021/12/25 11:40:34;;;;;;;1.73;0.90;;;26.40;33.20;;;;;;5072990;28;20473;-24
2021/12/25 11:43:02;;;;;;;1.13;0.90;;;26.70;33.10;;;;;;5072681;28;20487;-22
2021/12/25 11:45:41;;;;;;;2.40;1.20;;;27.10;32.90;;;;;;5073522;28;20201;-24
2021/12/25 11:48:16;;;;;;;1.20;1.10;;;27.00;32.80;;;;;;5072716;28;20498;-24
2021/12/25 11:50:45;;;;;;;1.50;1.03;;;26.80;32.60;;;;;;5072759;28;20238;-22
2021/12/25 11:53:24;;;;;;;1.63;1.03;;;26.80;32.90;;;;;;5072682;28;20235;-23
2021/12/25 11:58:55;;;;;;;1.23;0.93;;;26.90;32.70;;;;;;5073122;28;20192;-24
2021/12/25 12:01:31;;;;;;;1.00;0.90;;;26.60;32.80;;;;;;5072154;28;20199;-24
2021/12/25 12:04:12;;;;;;;2.97;1.10;;;26.30;33.00;;;;;;5071851;28;20195;-24
2021/12/25 12:06:44;;;;;;;1.93;0.97;;;25.70;33.20;;;;;;5072432;28;20191;-24
2021/12/25 12:09:12;;;;;;;1.27;1.10;;;25.00;33.60;;;;;;5072162;28;20218;-24
2021/12/25 12:11:41;;;;;;;3.57;1.20;;;24.50;33.90;;;;;;5072765;28;20206;-25
2021/12/25 12:14:22;;;;;;;3.07;1.37;;;24.00;34.40;;;;;;5072235;28;20525;-24
2021/12/25 12:16:53;;;;;;;2.10;1.40;;;23.60;34.80;;;;;;5071361;28;20195;-24
2021/12/25 12:19:35;;;;;;;3.60;1.30;;;23.20;35.20;;;;;;5072762;28;20192;-23
2021/12/25 12:22:19;;;;;;;2.27;1.53;;;23.40;35.30;;;;;;5073157;28;20248;-23
2021/12/25 12:25:14;;;;;;;3.47;1.60;;;23.90;34.90;;;;;;5072129;28;20192;-24
2021/12/25 12:27:42;;;;;;;4.73;2.00;;;24.30;34.50;;;;;;5072778;28;20226;-25
2021/12/25 12:30:12;;;;;;;6.73;2.30;;;24.60;34.30;;;;;;5071893;28;20268;-24
2021/12/25 12:32:45;;;;;;;3.13;1.93;;;25.30;34.10;;;;;;5071513;28;20234;-24
2021/12/25 12:35:26;;;;;;;2.57;1.77;;;26.10;34.00;;;;;;5071868;28;20491;-22
2021/12/25 12:37:52;;;;;;;4.93;2.10;;;26.40;33.20;;;;;;5071424;28;20199;-22
2021/12/25 12:40:31;;;;;;;3.00;2.00;;;26.50;33.10;;;;;;5070949;28;20205;-23
2021/12/25 12:42:59;;;;;;;3.57;2.00;;;26.50;33.00;;;;;;5072912;28;20187;-23
2021/12/25 12:45:26;;;;;;;3.10;2.10;;;26.60;33.00;;;;;;5071372;28;20208;-23
2021/12/25 12:48:18;;;;;;;3.13;1.80;;;26.70;32.90;;;;;;5073072;28;20587;-23
2021/12/25 12:50:56;;;;;;;3.83;2.10;;;26.90;32.60;;;;;;5071598;28;20377;-22
2021/12/25 12:53:24;;;;;;;3.50;1.83;;;26.70;32.70;;;;;;5071343;28;20199;-24
2021/12/25 12:55:54;;;;;;;3.00;1.90;;;26.60;32.80;;;;;;5070969;28;20194;-23
2021/12/25 12:58:24;;;;;;;3.67;2.00;;;26.60;32.80;;;;;;5071804;28;20214;-24
2021/12/25 13:00:59;;;;;;;2.97;1.80;;;26.80;32.70;;;;;;5070869;28;20814;-25
2021/12/25 13:03:27;;;;;;;4.03;1.60;;;26.80;32.60;;;;;;5071307;28;20281;-23
2021/12/25 13:05:57;;;;;;;3.53;2.10;;;26.50;32.70;;;;;;5072113;28;20289;-24
2021/12/25 13:08:27;;;;;;;4.07;1.90;;;26.40;32.80;;;;;;5069226;28;20195;-23
2021/12/25 13:11:03;;;;;;;4.80;2.00;;;26.30;32.80;;;;;;5071020;28;20207;-25
2021/12/25 13:13:37;;;;;;;3.63;1.70;;;26.20;32.80;;;;;;5070930;28;20194;-24
2021/12/25 13:16:12;;;;;;;3.60;1.87;;;26.00;32.90;;;;;;5070520;28;20293;-24
2021/12/25 13:18:41;;;;;;;2.83;1.90;;;25.70;33.00;;;;;;5071255;28;20225;-24
2021/12/25 13:21:22;;;;;;;3.70;1.77;;;25.60;33.30;;;;;;5072268;28;20605;-22
2021/12/25 13:23:55;;;;;;;6.13;1.93;;;25.40;33.30;;;;;;5071986;28;20274;-26
2021/12/25 13:26:32;;;;;;;2.90;1.87;;;25.20;33.30;;;;;;5072731;28;20198;-24
2021/12/25 13:29:00;;;;;;;2.10;1.80;;;25.10;33.30;;;;;;5070941;28;20541;-24
2021/12/25 13:31:29;;;;;;;5.97;2.17;;;25.00;33.40;;;;;;5068956;28;20219;-25
2021/12/25 13:33:58;;;;;;;3.20;1.80;;;24.80;33.50;;;;;;5070943;28;20249;-25
2021/12/25 13:36:28;;;;;;;5.77;2.37;;;24.90;33.50;;;;;;5070618;28;20191;-24
2021/12/25 13:39:03;;;;;;;3.13;1.73;;;25.10;33.40;;;;;;5073705;28;20226;-24
2021/12/25 13:41:41;;;;;;;3.60;1.83;;;25.20;33.30;;;;;;5075229;28;20179;-25
2021/12/25 13:44:06;;;;;;;3.27;2.00;;;25.40;33.30;;;;;;5073242;28;20245;-23
2021/12/25 13:46:41;;;;;;;2.67;1.80;;;25.60;33.10;;;;;;5075118;28;20196;-24
2021/12/25 13:49:24;;;;;;;3.47;1.90;;;26.00;33.40;;;;;;5075706;28;20218;-24
2021/12/25 13:51:50;;;;;;;3.00;1.73;;;26.20;32.80;;;;;;5073777;28;20285;-21
2021/12/25 13:54:20;;;;;;;5.00;1.90;;;26.20;32.70;;;;;;5073476;28;20199;-24
2021/12/25 13:56:50;;;;;;;3.67;1.70;;;26.10;32.70;;;;;;5074973;28;20187;-24
2021/12/25 13:59:17;;;;;;;3.93;2.10;;;26.30;32.70;;;;;;5074233;28;20203;-23
2021/12/25 14:01:43;;;;;;;3.67;1.90;;;26.40;32.60;;;;;;5074223;28;20184;-22
2021/12/25 14:04:11;;;;;;;3.80;2.20;;;26.50;32.60;;;;;;5073540;28;20579;-23
2021/12/25 14:06:37;;;;;;;4.33;2.03;;;26.40;32.60;;;;;;5074817;28;20191;-24
2021/12/25 14:09:05;;;;;;;4.33;2.27;;;26.40;32.60;;;;;;5074198;28;20416;-23
2021/12/25 14:11:32;;;;;;;5.00;2.30;;;26.50;32.60;;;;;;5074926;28;20226;-24
2021/12/25 14:13:58;;;;;;;3.13;2.10;;;26.50;32.40;;;;;;5074299;28;20198;-23
2021/12/25 14:16:24;;;;;;;3.10;2.17;;;26.50;32.40;;;;;;5073672;28;20556;-27
2021/12/25 14:18:50;;;;;;;3.37;2.20;;;26.40;32.40;;;;;;5073144;28;20210;-23
2021/12/25 14:21:22;;;;;;;3.47;2.10;;;26.30;32.40;;;;;;5073898;28;20199;-24